createdAt,value
2018-04-10T00:00:25.339Z,1.20
2018-04-10T00:01:25.349Z,1.10
2018-04-10T00:02:25.359Z,1.10
2018-04-10T00:03:25.367Z,1.10
2018-04-10T00:04:25.386Z,1.20
2018-04-10T00:05:25.387Z,1.10
2018-04-10T00:06:25.397Z,1.00
2018-04-10T00:07:25.405Z,1.20
2018-04-10T00:08:25.415Z,1.10
2018-04-10T00:09:25.424Z,1.20
2018-04-10T00:10:25.434Z,1.20
2018-04-10T00:11:25.446Z,1.10
2018-04-10T00:12:25.453Z,1.00
2018-04-10T00:13:25.461Z,1.00
2018-04-10T00:14:25.474Z,1.20
2018-04-10T00:15:25.493Z,1.30
2018-04-10T00:16:25.490Z,1.00
2018-04-10T00:17:25.499Z,1.00
2018-04-10T00:18:25.509Z,1.30
2018-04-10T00:19:25.519Z,1.00
2018-04-10T00:20:25.529Z,1.50
2018-04-10T00:21:25.536Z,1.20
2018-04-10T00:22:25.545Z,1.20
2018-04-10T00:23:25.554Z,1.40
2018-04-10T00:24:25.567Z,1.20
2018-04-10T00:25:25.572Z,1.30
2018-04-10T00:26:25.582Z,1.40
2018-04-10T00:27:25.594Z,1.50
2018-04-10T00:28:25.604Z,1.20
2018-04-10T00:29:25.612Z,1.10
2018-04-10T00:30:25.625Z,1.00
2018-04-10T00:31:25.626Z,1.40
2018-04-10T00:32:25.635Z,1.20
2018-04-10T00:33:25.647Z,1.10
2018-04-10T00:34:25.675Z,1.20
2018-04-10T00:35:25.663Z,1.10
2018-04-10T00:36:25.675Z,1.20
2018-04-10T00:37:25.686Z,1.20
2018-04-10T00:38:25.690Z,1.30
2018-04-10T00:39:25.700Z,1.10
2018-04-10T00:40:25.711Z,1.20
2018-04-10T00:41:25.719Z,1.10
2018-04-10T00:42:25.728Z,1.00
2018-04-10T00:43:25.738Z,1.10
2018-04-10T00:44:25.752Z,1.20
2018-04-10T00:45:25.756Z,1.20
2018-04-10T00:46:25.764Z,1.20
2018-04-10T00:47:25.771Z,1.10
2018-04-10T00:48:25.783Z,1.20
2018-04-10T00:49:25.790Z,1.20
2018-04-10T00:50:25.802Z,1.20
2018-04-10T00:51:25.809Z,1.30
2018-04-10T00:52:25.819Z,1.00
2018-04-10T00:53:25.830Z,1.30
2018-04-10T00:54:25.845Z,1.20
2018-04-10T00:55:25.846Z,1.10
2018-04-10T00:56:25.857Z,1.20
2018-04-10T00:57:25.865Z,1.10
2018-04-10T00:58:25.874Z,1.10
2018-04-10T00:59:25.896Z,0.90
2018-04-10T01:00:25.892Z,1.00
2018-04-10T01:01:25.904Z,1.00
2018-04-10T01:02:25.911Z,1.00
2018-04-10T01:03:25.922Z,0.80
2018-04-10T01:04:25.928Z,1.00
2018-04-10T01:05:25.939Z,1.00
2018-04-10T01:06:25.948Z,1.10
2018-04-10T01:07:25.955Z,1.10
2018-04-10T01:08:25.975Z,0.90
2018-04-10T01:09:25.975Z,1.00
2018-04-10T01:10:25.985Z,0.90
2018-04-10T01:11:25.992Z,1.00
2018-04-10T01:12:26.001Z,1.10
2018-04-10T01:13:26.013Z,1.20
2018-04-10T01:14:26.020Z,1.10
2018-04-10T01:15:26.029Z,1.20
2018-04-10T01:16:26.037Z,1.50
2018-04-10T01:17:26.051Z,1.10
2018-04-10T01:18:26.057Z,1.10
2018-04-10T01:19:26.065Z,1.10
2018-04-10T01:20:26.076Z,1.50
2018-04-10T01:21:26.084Z,0.90
2018-04-10T01:22:26.093Z,1.20
2018-04-10T01:23:26.102Z,1.10
2018-04-10T01:24:26.114Z,1.10
2018-04-10T01:25:26.120Z,1.30
2018-04-10T01:26:26.130Z,1.20
2018-04-10T01:27:26.137Z,1.10
2018-04-10T01:28:26.148Z,1.10
2018-04-10T01:29:26.157Z,1.00
2018-04-10T01:30:26.166Z,1.00
2018-04-10T01:31:26.174Z,1.10
2018-04-10T01:32:26.183Z,0.80
2018-04-10T01:33:26.191Z,0.90
2018-04-10T01:34:26.208Z,1.10
2018-04-10T01:35:26.208Z,1.00
2018-04-10T01:36:26.218Z,0.80
2018-04-10T01:37:26.227Z,1.30
2018-04-10T01:38:26.235Z,0.90
2018-04-10T01:39:26.245Z,1.00
2018-04-10T01:40:26.253Z,1.00
2018-04-10T01:41:26.261Z,1.10
2018-04-10T01:42:26.270Z,1.20
2018-04-10T01:43:26.279Z,1.10
2018-04-10T01:44:26.289Z,1.10
2018-04-10T01:45:26.299Z,1.10
2018-04-10T01:46:26.307Z,1.10
2018-04-10T01:47:26.314Z,1.10
2018-04-10T01:48:26.324Z,1.20
2018-04-10T01:49:26.335Z,1.30
2018-04-10T01:50:26.347Z,1.10
2018-04-10T01:51:26.350Z,1.20
2018-04-10T01:52:26.359Z,1.30
2018-04-10T01:53:26.368Z,1.10
2018-04-10T01:54:26.376Z,1.10
2018-04-10T01:55:26.386Z,1.30
2018-04-10T01:56:26.394Z,1.30
2018-04-10T01:57:26.405Z,1.00
2018-04-10T01:58:26.412Z,1.10
2018-04-10T01:59:26.419Z,1.10
2018-04-10T02:00:26.429Z,1.00
2018-04-10T02:01:26.441Z,1.20
2018-04-10T02:02:26.448Z,1.30
2018-04-10T02:03:26.454Z,1.20
2018-04-10T02:04:26.463Z,1.30
2018-04-10T02:05:26.472Z,1.30
2018-04-10T02:06:26.483Z,1.20
2018-04-10T02:07:26.490Z,1.30
2018-04-10T02:08:26.501Z,1.30
2018-04-10T02:09:26.506Z,1.40
2018-04-10T02:10:26.516Z,1.50
2018-04-10T02:11:26.523Z,1.40
2018-04-10T02:12:26.533Z,1.60
2018-04-10T02:13:26.541Z,1.50
2018-04-10T02:14:26.549Z,1.50
2018-04-10T02:15:26.558Z,1.50
2018-04-10T02:16:26.567Z,1.30
2018-04-10T02:17:26.575Z,1.50
2018-04-10T02:18:26.583Z,1.40
2018-04-10T02:19:26.592Z,1.40
2018-04-10T02:20:26.601Z,1.40
2018-04-10T02:21:26.610Z,1.70
2018-04-10T02:22:26.618Z,1.40
2018-04-10T02:23:26.626Z,1.50
2018-04-10T02:24:26.635Z,1.60
2018-04-10T02:25:26.643Z,1.90
2018-04-10T02:26:26.651Z,1.50
2018-04-10T02:27:26.661Z,1.40
2018-04-10T02:28:26.669Z,1.70
2018-04-10T02:29:26.677Z,1.70
2018-04-10T02:30:26.688Z,1.20
2018-04-10T02:31:26.694Z,1.60
2018-04-10T02:32:26.702Z,1.80
2018-04-10T02:33:26.710Z,1.50
2018-04-10T02:34:26.720Z,1.60
2018-04-10T02:35:26.726Z,1.60
2018-04-10T02:36:26.739Z,1.30
2018-04-10T02:37:26.745Z,1.40
2018-04-10T02:38:26.754Z,1.90
2018-04-10T02:39:26.761Z,1.50
2018-04-10T02:40:26.769Z,1.40
2018-04-10T02:41:26.776Z,1.60
2018-04-10T02:42:26.785Z,1.50
2018-04-10T02:43:26.797Z,1.60
2018-04-10T02:44:26.804Z,1.20
2018-04-10T02:45:26.826Z,1.20
2018-04-10T02:46:26.823Z,1.20
2018-04-10T02:47:26.828Z,1.20
2018-04-10T02:48:26.837Z,1.40
2018-04-10T02:49:26.845Z,1.30
2018-04-10T02:50:26.854Z,1.30
2018-04-10T02:51:26.863Z,1.20
2018-04-10T02:52:26.870Z,1.30
2018-04-10T02:53:26.878Z,1.80
2018-04-10T02:54:26.887Z,1.60
2018-04-10T02:55:26.893Z,1.30
2018-04-10T02:56:26.900Z,1.60
2018-04-10T02:57:26.909Z,1.40
2018-04-10T02:58:26.917Z,1.40
2018-04-10T02:59:26.925Z,1.50
2018-04-10T03:00:26.938Z,1.10
2018-04-10T03:01:26.941Z,1.30
2018-04-10T03:02:26.949Z,1.30
2018-04-10T03:03:26.956Z,1.40
2018-04-10T03:04:26.965Z,1.50
2018-04-10T03:05:26.974Z,1.40
2018-04-10T03:06:26.980Z,1.30
2018-04-10T03:07:26.988Z,1.40
2018-04-10T03:08:26.996Z,1.30
2018-04-10T03:09:27.003Z,1.20
2018-04-10T03:10:27.012Z,1.20
2018-04-10T03:11:27.019Z,1.20
2018-04-10T03:12:27.028Z,1.20
2018-04-10T03:13:27.034Z,1.40
2018-04-10T03:14:27.043Z,1.30
2018-04-10T03:15:27.050Z,1.60
2018-04-10T03:16:27.057Z,2.10
2018-04-10T03:17:27.065Z,1.80
2018-04-10T03:18:27.074Z,1.30
2018-04-10T03:19:27.082Z,1.20
2018-04-10T03:20:27.090Z,1.40
2018-04-10T03:21:27.096Z,1.10
2018-04-10T03:22:27.106Z,1.20
2018-04-10T03:23:27.114Z,1.20
2018-04-10T03:24:27.121Z,1.30
2018-04-10T03:25:27.129Z,1.20
2018-04-10T03:26:27.135Z,1.00
2018-04-10T03:27:27.143Z,1.20
2018-04-10T03:28:27.155Z,1.20
2018-04-10T03:29:27.159Z,1.20
2018-04-10T03:30:27.166Z,1.00
2018-04-10T03:31:27.174Z,1.20
2018-04-10T03:32:27.182Z,1.00
2018-04-10T03:33:27.189Z,1.00
2018-04-10T03:34:27.199Z,1.10
2018-04-10T03:35:27.205Z,1.00
2018-04-10T03:36:27.213Z,1.10
2018-04-10T03:37:27.220Z,1.00
2018-04-10T03:38:27.229Z,0.90
2018-04-10T03:39:27.236Z,1.10
2018-04-10T03:40:27.243Z,1.00
2018-04-10T03:41:27.251Z,1.00
2018-04-10T03:42:27.260Z,1.00
2018-04-10T03:43:27.267Z,1.00
2018-04-10T03:44:27.274Z,0.90
2018-04-10T03:45:27.281Z,1.10
2018-04-10T03:46:27.290Z,0.90
2018-04-10T03:47:27.297Z,0.90
2018-04-10T03:48:27.305Z,0.90
2018-04-10T03:49:27.315Z,1.10
2018-04-10T03:50:27.327Z,0.90
2018-04-10T03:51:27.328Z,0.90
2018-04-10T03:52:27.337Z,0.80
2018-04-10T03:53:27.343Z,0.80
2018-04-10T03:54:27.352Z,1.00
2018-04-10T03:55:27.361Z,1.00
2018-04-10T03:56:27.369Z,0.90
2018-04-10T03:57:27.375Z,1.00
2018-04-10T03:58:27.383Z,0.90
2018-04-10T03:59:27.389Z,0.80
2018-04-10T04:00:27.398Z,0.90
2018-04-10T04:01:27.406Z,0.80
2018-04-10T04:02:27.416Z,0.90
2018-04-10T04:03:27.422Z,0.90
2018-04-10T04:04:27.430Z,1.00
2018-04-10T04:05:27.439Z,0.90
2018-04-10T04:06:27.447Z,0.80
2018-04-10T04:07:27.455Z,0.90
2018-04-10T04:08:27.461Z,1.00
2018-04-10T04:09:27.469Z,1.00
2018-04-10T04:10:27.478Z,2.30
2018-04-10T04:11:27.484Z,4.20
2018-04-10T04:12:27.493Z,3.80
2018-04-10T04:13:27.500Z,2.80
2018-04-10T04:14:27.511Z,1.80
2018-04-10T04:15:27.515Z,1.20
2018-04-10T04:16:27.529Z,1.00
2018-04-10T04:17:27.533Z,1.00
2018-04-10T04:18:27.541Z,1.10
2018-04-10T04:19:27.547Z,1.00
2018-04-10T04:20:27.557Z,0.90
2018-04-10T04:21:27.564Z,0.90
2018-04-10T04:22:27.574Z,1.00
2018-04-10T04:23:27.579Z,0.90
2018-04-10T04:24:27.590Z,1.00
2018-04-10T04:25:27.597Z,1.00
2018-04-10T04:26:27.604Z,1.30
2018-04-10T04:27:27.610Z,1.50
2018-04-10T04:28:27.620Z,2.80
2018-04-10T04:29:27.629Z,2.50
2018-04-10T04:30:27.634Z,1.70
2018-04-10T04:31:27.641Z,2.20
2018-04-10T04:32:27.654Z,2.50
2018-04-10T04:33:27.660Z,2.40
2018-04-10T04:34:27.665Z,3.00
2018-04-10T04:35:27.672Z,3.60
2018-04-10T04:36:27.681Z,6.50
2018-04-10T04:37:27.688Z,3.40
2018-04-10T04:38:27.695Z,2.10
2018-04-10T04:39:27.703Z,1.10
2018-04-10T04:40:27.712Z,1.00
2018-04-10T04:41:27.718Z,1.10
2018-04-10T04:42:27.726Z,0.90
2018-04-10T04:43:27.733Z,0.90
2018-04-10T04:44:27.740Z,0.90
2018-04-10T04:45:28.000Z,0.80
2018-04-10T04:46:27.757Z,0.90
2018-04-10T04:47:27.763Z,0.90
2018-04-10T04:48:27.772Z,0.90
2018-04-10T04:49:27.781Z,0.90
2018-04-10T04:50:27.790Z,1.00
2018-04-10T04:51:27.794Z,0.90
2018-04-10T04:52:27.804Z,1.00
2018-04-10T04:53:27.828Z,1.00
2018-04-10T04:54:27.817Z,0.90
2018-04-10T04:55:27.824Z,0.90
2018-04-10T04:56:27.831Z,1.10
2018-04-10T04:57:27.842Z,1.10
2018-04-10T04:58:27.851Z,0.90
2018-04-10T04:59:27.856Z,0.80
2018-04-10T05:00:27.864Z,1.10
2018-04-10T05:01:27.870Z,0.80
2018-04-10T05:02:27.878Z,1.10
2018-04-10T05:03:27.886Z,0.90
2018-04-10T05:04:27.892Z,1.00
2018-04-10T05:05:27.902Z,1.00
2018-04-10T05:06:27.909Z,0.90
2018-04-10T05:07:27.916Z,0.90
2018-04-10T05:08:27.923Z,1.10
2018-04-10T05:09:27.936Z,1.10
2018-04-10T05:10:27.940Z,1.00
2018-04-10T05:11:27.947Z,0.90
2018-04-10T05:12:27.956Z,0.90
2018-04-10T05:13:27.963Z,1.00
2018-04-10T05:14:27.974Z,1.00
2018-04-10T05:15:28.016Z,1.20
2018-04-10T05:16:27.985Z,1.10
2018-04-10T05:17:27.994Z,1.60
2018-04-10T05:18:28.001Z,0.90
2018-04-10T05:19:28.010Z,0.90
2018-04-10T05:20:28.016Z,1.20
2018-04-10T05:21:28.023Z,0.80
2018-04-10T05:22:28.032Z,0.90
2018-04-10T05:23:28.039Z,1.20
2018-04-10T05:24:28.048Z,1.00
2018-04-10T05:25:28.054Z,1.00
2018-04-10T05:26:28.062Z,1.10
2018-04-10T05:27:28.070Z,0.90
2018-04-10T05:28:28.078Z,0.80
2018-04-10T05:29:28.084Z,1.00
2018-04-10T05:30:28.346Z,0.90
2018-04-10T05:31:28.100Z,1.00
2018-04-10T05:32:28.109Z,1.00
2018-04-10T05:33:28.119Z,1.00
2018-04-10T05:34:28.128Z,1.00
2018-04-10T05:35:28.132Z,0.90
2018-04-10T05:36:28.141Z,1.20
2018-04-10T05:37:28.150Z,1.70
2018-04-10T05:38:28.156Z,1.10
2018-04-10T05:39:28.162Z,0.90
2018-04-10T05:40:28.174Z,1.00
2018-04-10T05:41:28.180Z,1.20
2018-04-10T05:42:28.188Z,1.10
2018-04-10T05:43:28.195Z,0.90
2018-04-10T05:44:28.207Z,1.10
2018-04-10T05:45:28.211Z,1.10
2018-04-10T05:46:28.219Z,0.90
2018-04-10T05:47:28.225Z,0.70
2018-04-10T05:48:28.241Z,1.00
2018-04-10T05:49:28.243Z,0.90
2018-04-10T05:50:28.251Z,0.90
2018-04-10T05:51:28.259Z,0.90
2018-04-10T05:52:28.267Z,1.40
2018-04-10T05:53:28.274Z,2.10
2018-04-10T05:54:28.283Z,1.60
2018-04-10T05:55:28.289Z,1.20
2018-04-10T05:56:28.296Z,0.80
2018-04-10T05:57:28.306Z,0.70
2018-04-10T05:58:28.312Z,0.80
2018-04-10T05:59:28.320Z,0.80
2018-04-10T06:00:28.332Z,0.90
2018-04-10T06:01:28.336Z,1.00
2018-04-10T06:02:28.343Z,0.90
2018-04-10T06:03:28.351Z,0.90
2018-04-10T06:04:28.360Z,0.80
2018-04-10T06:05:28.366Z,0.90
2018-04-10T06:06:28.378Z,0.80
2018-04-10T06:07:28.385Z,0.90
2018-04-10T06:08:28.393Z,0.70
2018-04-10T06:09:28.407Z,0.90
2018-04-10T06:10:28.408Z,1.00
2018-04-10T06:11:28.415Z,0.80
2018-04-10T06:12:28.421Z,0.80
2018-04-10T06:13:28.430Z,0.80
2018-04-10T06:14:28.440Z,0.90
2018-04-10T06:15:28.448Z,0.90
2018-04-10T06:16:28.455Z,0.80
2018-04-10T06:17:28.465Z,0.80
2018-04-10T06:18:28.473Z,0.90
2018-04-10T06:19:28.481Z,1.00
2018-04-10T06:20:28.488Z,1.00
2018-04-10T06:21:28.497Z,0.80
2018-04-10T06:22:28.507Z,0.80
2018-04-10T06:23:28.514Z,1.00
2018-04-10T06:24:28.522Z,0.80
2018-04-10T06:25:28.531Z,0.80
2018-04-10T06:26:28.540Z,0.90
2018-04-10T06:27:28.547Z,0.90
2018-04-10T06:28:28.553Z,0.80
2018-04-10T06:29:28.561Z,1.10
2018-04-10T06:30:28.572Z,0.80
2018-04-10T06:31:28.578Z,0.90
2018-04-10T06:32:28.587Z,0.90
2018-04-10T06:33:28.596Z,0.80
2018-04-10T06:34:28.605Z,1.00
2018-04-10T06:35:28.611Z,0.70
2018-04-10T06:36:28.620Z,0.80
2018-04-10T06:37:28.661Z,0.80
2018-04-10T06:38:28.639Z,0.90
2018-04-10T06:39:28.647Z,0.80
2018-04-10T06:40:28.655Z,0.80
2018-04-10T06:41:28.666Z,0.80
2018-04-10T06:42:28.672Z,0.70
2018-04-10T06:43:28.686Z,0.80
2018-04-10T06:44:28.689Z,0.80
2018-04-10T06:45:28.697Z,0.80
2018-04-10T06:46:28.708Z,0.80
2018-04-10T06:47:28.717Z,0.80
2018-04-10T06:48:28.723Z,0.70
2018-04-10T06:49:28.732Z,0.80
2018-04-10T06:50:28.742Z,0.80
2018-04-10T06:51:28.750Z,0.60
2018-04-10T06:52:28.759Z,0.70
2018-04-10T06:53:28.767Z,1.00
2018-04-10T06:54:28.780Z,0.70
2018-04-10T06:55:28.786Z,0.80
2018-04-10T06:56:28.798Z,0.70
2018-04-10T06:57:28.802Z,0.70
2018-04-10T06:58:28.811Z,0.70
2018-04-10T06:59:28.820Z,0.80
2018-04-10T07:00:28.835Z,0.80
2018-04-10T07:01:28.837Z,0.70
2018-04-10T07:02:28.849Z,0.70
2018-04-10T07:03:28.853Z,0.90
2018-04-10T07:04:28.865Z,0.80
2018-04-10T07:05:28.872Z,0.80
2018-04-10T07:06:28.884Z,0.80
2018-04-10T07:07:28.901Z,0.80
2018-04-10T07:08:28.901Z,0.80
2018-04-10T07:09:28.908Z,0.70
2018-04-10T07:10:28.921Z,0.90
2018-04-10T07:11:28.927Z,0.80
2018-04-10T07:12:28.937Z,0.90
2018-04-10T07:13:28.958Z,0.80
2018-04-10T07:14:28.955Z,0.80
2018-04-10T07:15:28.962Z,0.70
2018-04-10T07:16:28.971Z,1.50
2018-04-10T07:17:28.982Z,0.80
2018-04-10T07:18:28.992Z,0.90
2018-04-10T07:19:28.996Z,1.00
2018-04-10T07:20:29.005Z,0.80
2018-04-10T07:21:29.014Z,0.70
2018-04-10T07:22:29.023Z,0.70
2018-04-10T07:23:29.034Z,0.70
2018-04-10T07:24:29.039Z,0.70
2018-04-10T07:25:29.052Z,0.70
2018-04-10T07:26:29.096Z,0.70
2018-04-10T07:27:29.066Z,0.80
2018-04-10T07:28:29.076Z,0.70
2018-04-10T07:29:29.085Z,0.60
2018-04-10T07:30:29.096Z,0.80
2018-04-10T07:31:29.106Z,0.90
2018-04-10T07:32:29.115Z,0.80
2018-04-10T07:33:29.124Z,0.80
2018-04-10T07:34:29.130Z,0.80
2018-04-10T07:35:29.139Z,0.80
2018-04-10T07:36:29.149Z,0.80
2018-04-10T07:37:29.158Z,0.70
2018-04-10T07:38:29.167Z,0.80
2018-04-10T07:39:29.178Z,0.70
2018-04-10T07:40:29.186Z,0.80
2018-04-10T07:41:29.196Z,0.70
2018-04-10T07:42:29.206Z,0.70
2018-04-10T07:43:29.214Z,0.70
2018-04-10T07:44:29.224Z,0.80
2018-04-10T07:45:29.234Z,0.70
2018-04-10T07:46:29.241Z,0.70
2018-04-10T07:47:29.251Z,0.80
2018-04-10T07:48:29.261Z,0.70
2018-04-10T07:49:29.271Z,0.80
2018-04-10T07:50:29.278Z,0.80
2018-04-10T07:51:29.289Z,0.60
2018-04-10T07:52:29.298Z,0.80
2018-04-10T07:53:29.309Z,0.70
2018-04-10T07:54:29.320Z,0.70
2018-04-10T07:55:29.326Z,0.60
2018-04-10T07:56:29.337Z,0.60
2018-04-10T07:57:29.346Z,0.70
2018-04-10T07:58:29.355Z,0.70
2018-04-10T07:59:29.365Z,0.70
2018-04-10T08:00:29.375Z,0.80
2018-04-10T08:01:29.388Z,0.70
2018-04-10T08:02:29.420Z,0.70
2018-04-10T08:03:29.405Z,0.80
2018-04-10T08:04:29.414Z,0.60
2018-04-10T08:05:29.427Z,0.70
2018-04-10T08:06:29.436Z,0.70
2018-04-10T08:07:29.446Z,0.60
2018-04-10T08:08:29.482Z,0.70
2018-04-10T08:09:29.469Z,0.70
2018-04-10T08:10:29.475Z,0.60
2018-04-10T08:11:29.487Z,0.70
2018-04-10T08:12:29.498Z,0.70
2018-04-10T08:13:29.510Z,0.80
2018-04-10T08:14:29.515Z,0.70
2018-04-10T08:15:29.524Z,0.70
2018-04-10T08:16:29.539Z,0.70
2018-04-10T08:17:29.546Z,0.80
2018-04-10T08:18:29.557Z,0.60
2018-04-10T08:19:29.564Z,0.60
2018-04-10T08:20:29.574Z,0.60
2018-04-10T08:21:29.586Z,0.70
2018-04-10T08:22:29.595Z,0.70
2018-04-10T08:23:29.605Z,0.60
2018-04-10T08:24:29.616Z,0.60
2018-04-10T08:25:29.626Z,0.70
2018-04-10T08:26:29.636Z,0.60
2018-04-10T08:27:29.646Z,0.80
2018-04-10T08:28:29.657Z,0.60
2018-04-10T08:29:29.667Z,0.60
2018-04-10T08:30:29.677Z,0.60
2018-04-10T08:31:29.687Z,0.70
2018-04-10T08:32:29.702Z,0.70
2018-04-10T08:33:29.708Z,0.70
2018-04-10T08:34:29.718Z,0.70
2018-04-10T08:35:29.730Z,0.60
2018-04-10T08:36:29.740Z,0.70
2018-04-10T08:37:29.753Z,0.70
2018-04-10T08:38:29.764Z,0.60
2018-04-10T08:39:29.771Z,0.80
2018-04-10T08:40:29.783Z,0.70
2018-04-10T08:41:29.795Z,0.60
2018-04-10T08:42:29.805Z,0.60
2018-04-10T08:43:29.815Z,0.70
2018-04-10T08:44:29.828Z,0.70
2018-04-10T08:45:29.838Z,0.60
2018-04-10T08:46:29.853Z,0.80
2018-04-10T08:47:29.865Z,0.70
2018-04-10T08:48:29.872Z,0.70
2018-04-10T08:49:29.883Z,0.70
2018-04-10T08:50:29.907Z,0.70
2018-04-10T08:51:29.904Z,0.80
2018-04-10T08:52:29.917Z,0.60
2018-04-10T08:53:29.929Z,0.70
2018-04-10T08:54:29.939Z,0.70
2018-04-10T08:55:29.952Z,0.60
2018-04-10T08:56:29.963Z,0.70
2018-04-10T08:57:29.974Z,0.80
2018-04-10T08:58:29.987Z,0.70
2018-04-10T08:59:29.997Z,0.60
2018-04-10T09:00:30.008Z,0.80
2018-04-10T09:01:30.019Z,0.60
2018-04-10T09:02:30.034Z,0.60
2018-04-10T09:03:30.042Z,0.90
2018-04-10T09:04:30.053Z,0.80
2018-04-10T09:05:30.066Z,0.60
2018-04-10T09:06:30.078Z,0.60
2018-04-10T09:07:30.090Z,0.60
2018-04-10T09:08:30.102Z,0.60
2018-04-10T09:09:30.113Z,0.70
2018-04-10T09:10:30.126Z,0.70
2018-04-10T09:11:30.135Z,0.60
2018-04-10T09:12:30.146Z,0.70
2018-04-10T09:13:30.160Z,0.70
2018-04-10T09:14:30.170Z,0.60
2018-04-10T09:15:30.188Z,0.60
2018-04-10T09:16:30.193Z,0.70
2018-04-10T09:17:30.205Z,0.60
2018-04-10T09:18:30.217Z,0.60
2018-04-10T09:19:30.229Z,0.60
2018-04-10T09:20:30.240Z,0.60
2018-04-10T09:21:30.255Z,0.70
2018-04-10T09:22:30.267Z,0.60
2018-04-10T09:23:30.277Z,0.70
2018-04-10T09:24:30.288Z,0.80
2018-04-10T09:25:30.300Z,0.70
2018-04-10T09:26:30.312Z,0.80
2018-04-10T09:27:30.325Z,0.90
2018-04-10T09:28:30.337Z,0.60
2018-04-10T09:29:30.347Z,0.60
2018-04-10T09:30:30.360Z,0.60
2018-04-10T09:31:30.372Z,0.60
2018-04-10T09:32:30.388Z,0.60
2018-04-10T09:33:30.396Z,0.70
2018-04-10T09:34:30.413Z,0.80
2018-04-10T09:35:30.423Z,0.60
2018-04-10T09:36:30.432Z,0.60
2018-04-10T09:37:30.445Z,0.60
2018-04-10T09:38:30.459Z,0.50
2018-04-10T09:39:30.471Z,0.70
2018-04-10T09:40:30.480Z,0.80
2018-04-10T09:41:30.494Z,0.50
2018-04-10T09:42:30.508Z,0.60
2018-04-10T09:43:30.518Z,0.60
2018-04-10T09:44:30.533Z,0.70
2018-04-10T09:45:30.546Z,0.60
2018-04-10T09:46:30.557Z,0.50
2018-04-10T09:47:30.566Z,0.60
2018-04-10T09:48:30.580Z,0.60
2018-04-10T09:49:30.592Z,0.60
2018-04-10T09:50:30.614Z,0.60
2018-04-10T09:51:30.615Z,0.60
2018-04-10T09:52:30.628Z,0.60
2018-04-10T09:53:30.639Z,0.60
2018-04-10T09:54:30.659Z,0.60
2018-04-10T09:55:30.665Z,0.60
2018-04-10T09:56:30.677Z,0.60
2018-04-10T09:57:30.689Z,0.70
2018-04-10T09:58:30.700Z,0.60
2018-04-10T09:59:30.712Z,0.70
2018-04-10T10:00:30.766Z,0.70
2018-04-10T10:01:30.735Z,0.70
2018-04-10T10:02:30.747Z,0.80
2018-04-10T10:03:30.760Z,0.60
2018-04-10T10:04:30.771Z,1.10
2018-04-10T10:05:30.786Z,0.70
2018-04-10T10:06:30.796Z,0.60
2018-04-10T10:07:30.806Z,0.50
2018-04-10T10:08:30.821Z,0.50
2018-04-10T10:09:30.836Z,0.50
2018-04-10T10:10:30.842Z,0.70
2018-04-10T10:11:30.852Z,0.50
2018-04-10T10:12:30.865Z,0.60
2018-04-10T10:13:30.878Z,0.50
2018-04-10T10:14:30.888Z,0.60
2018-04-10T10:15:30.897Z,0.50
2018-04-10T10:16:30.911Z,0.50
2018-04-10T10:17:30.921Z,0.50
2018-04-10T10:18:30.933Z,0.50
2018-04-10T10:19:30.948Z,0.60
2018-04-10T10:20:30.955Z,0.50
2018-04-10T10:21:30.969Z,0.50
2018-04-10T10:22:30.977Z,0.50
2018-04-10T10:23:30.990Z,0.60
2018-04-10T10:24:31.004Z,0.50
2018-04-10T10:25:31.014Z,0.50
2018-04-10T10:26:31.022Z,0.60
2018-04-10T10:27:31.032Z,0.50
2018-04-10T10:28:31.044Z,0.50
2018-04-10T10:29:31.055Z,0.50
2018-04-10T10:30:31.069Z,0.50
2018-04-10T10:31:31.081Z,0.60
2018-04-10T10:32:31.089Z,0.50
2018-04-10T10:33:31.099Z,0.50
2018-04-10T10:34:31.113Z,0.50
2018-04-10T10:35:31.123Z,0.50
2018-04-10T10:36:31.131Z,0.50
2018-04-10T10:37:31.145Z,0.50
2018-04-10T10:38:31.156Z,0.50
2018-04-10T10:39:31.165Z,0.60
2018-04-10T10:40:31.176Z,0.50
2018-04-10T10:41:31.185Z,0.50
2018-04-10T10:42:31.199Z,0.50
2018-04-10T10:43:31.207Z,0.50
2018-04-10T10:44:31.227Z,0.60
2018-04-10T10:45:31.233Z,0.50
2018-04-10T10:46:31.247Z,0.50
2018-04-10T10:47:31.249Z,0.60
2018-04-10T10:48:31.263Z,0.50
2018-04-10T10:49:31.274Z,0.50
2018-04-10T10:50:31.285Z,0.60
2018-04-10T10:51:31.295Z,0.50
2018-04-10T10:52:31.307Z,0.50
2018-04-10T10:53:31.322Z,0.50
2018-04-10T10:54:31.330Z,0.50
2018-04-10T10:55:31.340Z,0.50
2018-04-10T10:56:31.350Z,0.50
2018-04-10T10:57:31.363Z,0.50
2018-04-10T10:58:31.374Z,0.50
2018-04-10T10:59:31.386Z,0.50
2018-04-10T11:00:31.394Z,0.50
2018-04-10T11:01:31.404Z,0.50
2018-04-10T11:02:31.417Z,0.50
2018-04-10T11:03:31.424Z,0.50
2018-04-10T11:04:31.440Z,0.50
2018-04-10T11:05:31.448Z,0.60
2018-04-10T11:06:31.482Z,0.50
2018-04-10T11:07:31.472Z,0.60
2018-04-10T11:08:31.480Z,0.50
2018-04-10T11:09:31.495Z,0.60
2018-04-10T11:10:31.503Z,0.50
2018-04-10T11:11:31.513Z,0.50
2018-04-10T11:12:31.523Z,0.50
2018-04-10T11:13:31.535Z,0.50
2018-04-10T11:14:31.550Z,0.60
2018-04-10T11:15:31.557Z,0.50
2018-04-10T11:16:31.568Z,0.50
2018-04-10T11:17:31.580Z,0.50
2018-04-10T11:18:31.592Z,0.50
2018-04-10T11:19:31.605Z,0.50
2018-04-10T11:20:31.613Z,0.50
2018-04-10T11:21:31.624Z,0.50
2018-04-10T11:22:31.640Z,0.60
2018-04-10T11:23:31.650Z,0.50
2018-04-10T11:24:31.658Z,0.50
2018-04-10T11:25:31.670Z,0.50
2018-04-10T11:26:31.680Z,0.50
2018-04-10T11:27:31.693Z,0.60
2018-04-10T11:28:31.701Z,0.50
2018-04-10T11:29:31.713Z,0.60
2018-04-10T11:30:31.726Z,0.60
2018-04-10T11:31:31.738Z,0.50
2018-04-10T11:32:31.748Z,0.50
2018-04-10T11:33:31.761Z,0.50
2018-04-10T11:34:31.771Z,0.60
2018-04-10T11:35:31.781Z,0.50
2018-04-10T11:36:31.793Z,0.60
2018-04-10T11:37:31.802Z,0.60
2018-04-10T11:38:31.813Z,0.60
2018-04-10T11:39:31.830Z,0.60
2018-04-10T11:40:31.838Z,0.60
2018-04-10T11:41:31.847Z,0.70
2018-04-10T11:42:31.859Z,0.60
2018-04-10T11:43:31.868Z,0.60
2018-04-10T11:44:31.880Z,0.50
2018-04-10T11:45:31.891Z,0.60
2018-04-10T11:46:31.901Z,0.70
2018-04-10T11:47:31.914Z,0.70
2018-04-10T11:48:31.926Z,0.60
2018-04-10T11:49:31.932Z,0.70
2018-04-10T11:50:31.947Z,0.70
2018-04-10T11:51:31.956Z,0.70
2018-04-10T11:52:31.970Z,0.60
2018-04-10T11:53:31.976Z,1.00
2018-04-10T11:54:31.989Z,1.00
2018-04-10T11:55:31.998Z,0.90
2018-04-10T11:56:32.008Z,0.60
2018-04-10T11:57:32.021Z,0.60
2018-04-10T11:58:32.030Z,0.60
2018-04-10T11:59:32.041Z,0.60
2018-04-10T12:00:32.051Z,0.70
2018-04-10T12:01:32.065Z,0.70
2018-04-10T12:02:32.077Z,0.60
2018-04-10T12:03:32.085Z,0.60
2018-04-10T12:04:32.094Z,0.70
2018-04-10T12:05:32.107Z,0.50
2018-04-10T12:06:32.116Z,0.60
2018-04-10T12:07:32.126Z,0.60
2018-04-10T12:08:32.137Z,0.60
2018-04-10T12:09:32.145Z,0.70
2018-04-10T12:10:32.157Z,0.70
2018-04-10T12:11:32.167Z,0.60
2018-04-10T12:12:32.177Z,0.60
2018-04-10T12:13:32.191Z,0.70
2018-04-10T12:14:32.200Z,0.70
2018-04-10T12:15:32.209Z,0.60
2018-04-10T12:16:32.218Z,0.60
2018-04-10T12:17:32.231Z,0.60
2018-04-10T12:18:32.239Z,0.60
2018-04-10T12:19:32.248Z,0.60
2018-04-10T12:20:32.259Z,0.70
2018-04-10T12:21:32.272Z,0.70
2018-04-10T12:22:32.279Z,0.70
2018-04-10T12:23:32.287Z,0.80
2018-04-10T12:24:32.298Z,0.60
2018-04-10T12:25:32.307Z,0.70
2018-04-10T12:26:32.318Z,0.60
2018-04-10T12:27:32.325Z,0.70
2018-04-10T12:28:32.338Z,0.80
2018-04-10T12:29:32.347Z,0.60
2018-04-10T12:30:32.358Z,0.60
2018-04-10T12:31:32.365Z,0.80
2018-04-10T12:32:32.377Z,0.80
2018-04-10T12:33:32.385Z,0.60
2018-04-10T12:34:32.396Z,0.80
2018-04-10T12:35:32.402Z,0.70
2018-04-10T12:36:32.458Z,0.70
2018-04-10T12:37:32.423Z,0.80
2018-04-10T12:38:32.433Z,0.80
2018-04-10T12:39:32.442Z,0.70
2018-04-10T12:40:32.451Z,0.80
2018-04-10T12:41:32.461Z,0.80
2018-04-10T12:42:32.469Z,1.00
2018-04-10T12:43:32.478Z,0.80
2018-04-10T12:44:32.489Z,0.70
2018-04-10T12:45:32.501Z,0.80
2018-04-10T12:46:32.510Z,0.80
2018-04-10T12:47:32.519Z,0.90
2018-04-10T12:48:32.527Z,0.90
2018-04-10T12:49:32.542Z,0.90
2018-04-10T12:50:32.546Z,0.70
2018-04-10T12:51:32.553Z,0.90
2018-04-10T12:52:32.569Z,2.70
2018-04-10T12:53:32.572Z,1.50
2018-04-10T12:54:32.582Z,0.90
2018-04-10T12:55:32.590Z,1.30
2018-04-10T12:56:32.599Z,0.80
2018-04-10T12:57:32.608Z,0.90
2018-04-10T12:58:32.618Z,0.80
2018-04-10T12:59:32.626Z,0.80
2018-04-10T13:00:32.635Z,0.90
2018-04-10T13:01:32.644Z,0.90
2018-04-10T13:02:32.655Z,0.90
2018-04-10T13:03:32.663Z,0.90
2018-04-10T13:04:32.672Z,0.80
2018-04-10T13:05:32.678Z,0.90
2018-04-10T13:06:32.688Z,0.70
2018-04-10T13:07:32.700Z,0.80
2018-04-10T13:08:32.708Z,0.70
2018-04-10T13:09:32.715Z,0.60
2018-04-10T13:10:32.722Z,0.70
2018-04-10T13:11:32.732Z,0.70
2018-04-10T13:12:32.741Z,1.60
2018-04-10T13:13:32.751Z,1.60
2018-04-10T13:14:32.760Z,0.80
2018-04-10T13:15:32.765Z,0.80
2018-04-10T13:16:32.777Z,0.70
2018-04-10T13:17:32.787Z,0.80
2018-04-10T13:18:32.801Z,0.60